createdAt,value
2023-02-13T00:01:18.746Z,79.98
2023-02-13T00:03:59.733Z,79.72
2023-02-13T00:06:43.902Z,79.69
2023-02-13T00:09:29.904Z,79.55
2023-02-13T00:12:13.813Z,79.58
2023-02-13T00:15:00.495Z,79.69
2023-02-13T00:17:41.550Z,79.56
2023-02-13T00:20:31.541Z,79.52
2023-02-13T00:23:18.733Z,79.52
2023-02-13T00:26:01.113Z,79.55
2023-02-13T00:28:45.032Z,79.44
2023-02-13T00:31:28.806Z,79.49
2023-02-13T00:34:10.527Z,79.53
2023-02-13T00:36:58.745Z,79.38
2023-02-13T00:39:40.735Z,79.54
2023-02-13T00:42:26.627Z,79.56
2023-02-13T00:45:07.540Z,79.43
2023-02-13T00:47:56.685Z,79.30
2023-02-13T00:50:38.527Z,79.30
2023-02-13T00:53:27.524Z,79.29
2023-02-13T00:56:03.304Z,79.24
2023-02-13T00:58:51.529Z,79.37
2023-02-13T01:01:26.071Z,79.25
2023-02-13T01:04:14.539Z,79.06
2023-02-13T01:06:48.948Z,78.96
2023-02-13T01:09:36.537Z,78.92
2023-02-13T01:12:17.543Z,78.93
2023-02-13T01:14:58.649Z,78.78
2023-02-13T01:17:47.540Z,79.00
2023-02-13T01:20:23.648Z,78.87
2023-02-13T01:23:13.568Z,78.76
2023-02-13T01:25:51.891Z,78.79
2023-02-13T01:28:39.597Z,78.92
2023-02-13T01:31:14.980Z,79.09
2023-02-13T01:34:05.518Z,78.97
2023-02-13T01:36:39.655Z,78.86
2023-02-13T01:39:27.719Z,78.85
2023-02-13T01:42:02.661Z,78.78
2023-02-13T01:45:07.511Z,78.71
2023-02-13T01:48:01.664Z,78.73
2023-02-13T01:50:56.998Z,78.63
2023-02-13T01:53:56.711Z,78.55
2023-02-13T01:56:46.705Z,78.53
2023-02-13T01:59:40.498Z,78.38
2023-02-13T02:02:21.654Z,78.42
2023-02-13T02:05:09.507Z,78.50
2023-02-13T02:07:43.941Z,78.73
2023-02-13T02:10:33.710Z,78.48
2023-02-13T02:13:26.495Z,78.46
2023-02-13T02:16:14.588Z,78.35
2023-02-13T02:18:50.639Z,78.30
2023-02-13T02:22:03.563Z,78.32
2023-02-13T02:24:55.637Z,78.33
2023-02-13T02:28:08.768Z,78.34
2023-02-13T02:31:00.954Z,78.38
2023-02-13T02:34:22.523Z,78.39
2023-02-13T02:37:11.631Z,78.58
2023-02-13T02:40:46.720Z,78.62
2023-02-13T02:43:53.644Z,78.72
2023-02-13T02:46:46.607Z,78.75
2023-02-13T02:49:39.925Z,78.79
2023-02-13T02:52:35.494Z,78.90
2023-02-13T02:55:28.508Z,78.94
2023-02-13T02:58:48.497Z,78.97
2023-02-13T03:01:56.504Z,78.94
2023-02-13T03:05:06.003Z,78.89
2023-02-13T03:07:53.499Z,78.93
2023-02-13T03:10:55.495Z,79.03
2023-02-13T03:13:50.502Z,79.13
2023-02-13T03:16:55.504Z,79.10
2023-02-13T03:20:26.504Z,79.08
2023-02-13T03:23:43.502Z,78.92
2023-02-13T03:26:46.443Z,78.98
2023-02-13T03:30:04.498Z,78.90
2023-02-13T03:32:55.537Z,78.95
2023-02-13T03:36:13.029Z,78.87
2023-02-13T03:39:11.502Z,78.77
2023-02-13T03:42:09.514Z,78.77
2023-02-13T03:45:18.700Z,78.74
2023-02-13T03:48:03.709Z,78.61
2023-02-13T03:50:46.802Z,78.47
2023-02-13T03:53:29.694Z,78.50
2023-02-13T03:56:38.488Z,78.59
2023-02-13T03:59:35.377Z,78.80
2023-02-13T04:02:28.499Z,79.07
2023-02-13T04:05:08.777Z,79.18
2023-02-13T04:07:56.522Z,79.43
2023-02-13T04:10:33.177Z,79.38
2023-02-13T04:13:45.501Z,79.52
2023-02-13T04:16:33.667Z,79.48
2023-02-13T04:19:22.511Z,79.54
2023-02-13T04:22:06.487Z,79.71
2023-02-13T04:24:54.496Z,79.67
2023-02-13T04:27:42.485Z,79.55
2023-02-13T04:30:17.639Z,79.54
2023-02-13T04:33:06.693Z,79.36
2023-02-13T04:35:41.709Z,79.44
2023-02-13T04:38:29.547Z,79.59
2023-02-13T04:41:04.653Z,79.63
2023-02-13T04:43:52.498Z,79.70
2023-02-13T04:46:27.903Z,79.66
2023-02-13T04:49:19.484Z,79.69
2023-02-13T04:52:01.493Z,79.81
2023-02-13T04:54:56.495Z,79.94
2023-02-13T04:57:44.609Z,79.92
2023-02-13T05:00:28.609Z,79.89
2023-02-13T05:03:15.510Z,79.88
2023-02-13T05:06:03.479Z,79.74
2023-02-13T05:08:37.981Z,79.76
2023-02-13T05:11:25.491Z,79.84
2023-02-13T05:14:00.121Z,79.91
2023-02-13T05:16:49.492Z,80.00
2023-02-13T05:19:23.908Z,79.97
2023-02-13T05:22:29.491Z,79.92
2023-02-13T05:25:25.490Z,79.93
2023-02-13T05:28:36.521Z,80.16
2023-02-13T05:31:17.939Z,80.46
2023-02-13T05:34:00.665Z,80.64
2023-02-13T05:36:49.574Z,80.62
2023-02-13T05:39:25.104Z,80.52
2023-02-13T05:42:13.577Z,80.43
2023-02-13T05:44:55.693Z,80.61
2023-02-13T05:47:37.803Z,80.74
2023-02-13T05:50:19.667Z,80.81
2023-02-13T05:53:01.666Z,80.97
2023-02-13T05:55:43.660Z,81.00
2023-02-13T05:58:26.682Z,81.09
2023-02-13T06:01:08.653Z,81.21
2023-02-13T06:03:59.295Z,81.39
2023-02-13T06:06:34.976Z,81.48
2023-02-13T06:09:22.475Z,81.58
2023-02-13T06:12:10.451Z,81.50
2023-02-13T06:14:58.492Z,81.39
2023-02-13T06:17:33.606Z,81.39
2023-02-13T06:20:21.464Z,81.40
2023-02-13T06:23:04.471Z,81.16
2023-02-13T06:25:59.469Z,81.07
2023-02-13T06:28:47.475Z,80.87
2023-02-13T06:31:22.982Z,80.74
2023-02-13T06:34:10.657Z,80.66
2023-02-13T06:36:45.594Z,80.68
2023-02-13T06:39:33.457Z,80.55
2023-02-13T06:42:14.474Z,80.64
2023-02-13T06:45:09.462Z,80.52
2023-02-13T06:47:58.488Z,80.36
2023-02-13T06:50:41.473Z,80.31
2023-02-13T06:53:36.467Z,80.29
2023-02-13T06:56:24.469Z,80.18
2023-02-13T06:59:06.464Z,80.16
2023-02-13T07:02:01.459Z,80.11
2023-02-13T07:04:49.472Z,80.07
2023-02-13T07:07:24.596Z,80.02
2023-02-13T07:10:14.490Z,79.93
2023-02-13T07:13:03.752Z,79.88
2023-02-13T07:15:53.493Z,79.75
2023-02-13T07:18:28.654Z,79.80
2023-02-13T07:21:16.577Z,79.68
2023-02-13T07:23:51.609Z,79.61
2023-02-13T07:26:39.476Z,79.50
2023-02-13T07:29:23.595Z,79.40
2023-02-13T07:32:04.479Z,79.44
2023-02-13T07:35:00.586Z,79.41
2023-02-13T07:37:42.654Z,79.23
2023-02-13T07:40:26.611Z,79.00
2023-02-13T07:43:08.465Z,78.93
2023-02-13T07:45:49.727Z,78.83
2023-02-13T07:48:33.463Z,78.61
2023-02-13T07:51:21.654Z,78.51
2023-02-13T07:53:57.695Z,78.31
2023-02-13T07:56:45.456Z,78.03
2023-02-13T07:59:26.527Z,77.76
2023-02-13T08:02:14.698Z,77.64
2023-02-13T08:04:57.619Z,77.37
2023-02-13T08:07:39.596Z,77.20
2023-02-13T08:10:39.485Z,77.05
2023-02-13T08:13:34.534Z,76.62
2023-02-13T08:16:22.688Z,76.47
2023-02-13T08:18:58.732Z,76.31
2023-02-13T08:21:47.486Z,76.01
2023-02-13T08:24:26.249Z,75.61
2023-02-13T08:27:14.574Z,75.47
2023-02-13T08:30:03.442Z,75.34
2023-02-13T08:32:53.919Z,75.49
2023-02-13T08:35:35.706Z,75.23
2023-02-13T08:38:17.492Z,74.89
2023-02-13T08:41:06.286Z,74.47
2023-02-13T08:43:40.968Z,74.33
2023-02-13T08:46:29.547Z,74.10
2023-02-13T08:49:24.428Z,73.88
2023-02-13T08:52:12.461Z,73.70
2023-02-13T08:54:47.600Z,73.58
2023-02-13T08:57:35.543Z,73.42
2023-02-13T09:00:17.436Z,73.20
2023-02-13T09:03:10.424Z,73.14
2023-02-13T09:05:45.584Z,73.02
2023-02-13T09:08:33.435Z,72.75
2023-02-13T09:11:09.586Z,72.70
2023-02-13T09:14:07.446Z,72.11
2023-02-13T09:17:02.603Z,72.04
2023-02-13T09:19:50.460Z,71.82
2023-02-13T09:22:31.562Z,71.51
2023-02-13T09:25:13.440Z,71.01
2023-02-13T09:27:54.595Z,70.59
2023-02-13T09:30:42.465Z,70.20
2023-02-13T09:33:17.613Z,69.89
2023-02-13T09:36:05.614Z,69.92
2023-02-13T09:38:42.933Z,69.70
2023-02-13T09:41:35.528Z,69.86
2023-02-13T09:44:44.764Z,70.00
2023-02-13T09:47:39.466Z,70.01
2023-02-13T09:50:36.719Z,70.21
2023-02-13T09:53:29.441Z,70.07
2023-02-13T09:56:56.516Z,70.02
2023-02-13T09:59:54.485Z,69.95
2023-02-13T10:03:03.444Z,69.58
2023-02-13T10:05:55.370Z,69.36
2023-02-13T10:09:12.439Z,69.39
2023-02-13T10:12:08.489Z,69.10
2023-02-13T10:15:31.552Z,68.57
2023-02-13T10:18:24.431Z,68.11
2023-02-13T10:21:09.447Z,67.84
2023-02-13T10:24:04.445Z,67.97
2023-02-13T10:26:54.422Z,67.97
2023-02-13T10:29:53.424Z,68.16
2023-02-13T10:33:17.438Z,67.91
2023-02-13T10:36:01.888Z,67.91
2023-02-13T10:38:55.439Z,67.84
2023-02-13T10:41:58.552Z,67.74
2023-02-13T10:45:04.515Z,67.18
2023-02-13T10:47:55.211Z,67.19
2023-02-13T10:51:13.459Z,67.88
2023-02-13T10:54:12.760Z,68.02
2023-02-13T10:57:04.485Z,68.07
2023-02-13T10:59:55.624Z,67.71
2023-02-13T11:02:48.430Z,67.24
2023-02-13T11:05:31.732Z,66.30
2023-02-13T11:08:35.462Z,66.23
2023-02-13T11:11:35.619Z,66.29
2023-02-13T11:14:28.431Z,66.78
2023-02-13T11:17:24.429Z,66.60
2023-02-13T11:20:04.547Z,66.39
2023-02-13T11:22:52.426Z,66.45
2023-02-13T11:25:32.385Z,66.35
2023-02-13T11:28:27.448Z,66.74
2023-02-13T11:31:33.583Z,67.28
2023-02-13T11:34:29.504Z,68.21
2023-02-13T11:37:26.450Z,68.44
2023-02-13T11:40:22.388Z,68.87
2023-02-13T11:43:10.412Z,69.47
2023-02-13T11:45:45.036Z,69.67
2023-02-13T11:48:36.455Z,70.09
2023-02-13T11:51:10.835Z,70.32
2023-02-13T11:53:58.419Z,70.57
2023-02-13T11:57:08.827Z,70.59
2023-02-13T11:59:58.433Z,70.42
2023-02-13T12:02:52.547Z,70.47
2023-02-13T12:05:41.421Z,70.96
2023-02-13T12:08:29.434Z,71.43
2023-02-13T12:11:05.554Z,71.58
2023-02-13T12:13:53.442Z,71.59
2023-02-13T12:16:52.690Z,71.52
2023-02-13T12:19:49.424Z,71.41
2023-02-13T12:22:38.601Z,71.48
2023-02-13T12:25:26.569Z,71.44
2023-02-13T12:28:13.844Z,71.50
2023-02-13T12:31:17.520Z,71.86
2023-02-13T12:34:25.527Z,71.97
2023-02-13T12:37:16.413Z,72.32
2023-02-13T12:40:32.416Z,72.70
2023-02-13T12:43:51.413Z,73.00
2023-02-13T12:46:53.441Z,73.27
2023-02-13T12:49:34.617Z,73.26
2023-02-13T12:52:47.416Z,73.45
2023-02-13T12:55:31.575Z,73.36
2023-02-13T12:58:40.505Z,73.11
2023-02-13T13:01:26.487Z,72.89
2023-02-13T13:04:33.480Z,72.60
2023-02-13T13:07:34.626Z,72.60
2023-02-13T13:10:54.512Z,72.47
2023-02-13T13:13:43.676Z,72.35
2023-02-13T13:16:53.452Z,72.43
2023-02-13T13:19:38.534Z,72.65
2023-02-13T13:22:30.409Z,73.36
2023-02-13T13:25:31.543Z,73.71
2023-02-13T13:28:40.437Z,74.23
2023-02-13T13:31:15.606Z,74.49
2023-02-13T13:34:09.405Z,74.70
2023-02-13T13:37:02.395Z,74.78
2023-02-13T13:40:10.418Z,74.85
2023-02-13T13:43:06.384Z,74.86
2023-02-13T13:45:58.870Z,74.98
2023-02-13T13:48:52.408Z,74.89
2023-02-13T13:51:40.407Z,75.00
2023-02-13T13:54:32.477Z,75.52
2023-02-13T13:57:07.726Z,75.99
2023-02-13T13:59:58.523Z,76.51
2023-02-13T14:02:48.473Z,76.95
2023-02-13T14:05:40.410Z,77.88
2023-02-13T14:08:53.392Z,78.19
2023-02-13T14:11:55.394Z,78.48
2023-02-13T14:14:50.415Z,78.56
2023-02-13T14:18:00.405Z,78.60
2023-02-13T14:20:49.405Z,78.71
2023-02-13T14:23:36.585Z,78.64
2023-02-13T14:26:24.413Z,78.68
2023-02-13T14:28:58.513Z,78.82
2023-02-13T14:31:49.487Z,78.89
2023-02-13T14:34:31.576Z,79.21
2023-02-13T14:37:24.417Z,79.18
2023-02-13T14:40:25.512Z,79.34
2023-02-13T14:43:27.404Z,79.57
2023-02-13T14:46:15.528Z,79.78
2023-02-13T14:49:10.405Z,79.88
2023-02-13T14:51:57.616Z,80.09
2023-02-13T14:54:50.384Z,80.22
2023-02-13T14:57:36.579Z,80.17
2023-02-13T15:00:42.437Z,80.11
2023-02-13T15:04:01.447Z,80.26
2023-02-13T15:06:58.390Z,80.44
2023-02-13T15:09:41.820Z,80.89
2023-02-13T15:12:47.391Z,81.07
2023-02-13T15:15:46.442Z,81.30
2023-02-13T15:18:48.496Z,81.51
2023-02-13T15:21:40.408Z,81.60
2023-02-13T15:24:36.386Z,81.86
2023-02-13T15:27:37.373Z,81.79
2023-02-13T15:30:36.386Z,81.70
2023-02-13T15:33:33.437Z,81.50
2023-02-13T15:36:32.394Z,81.40
2023-02-13T15:39:17.372Z,81.51
2023-02-13T15:42:07.391Z,81.62
2023-02-13T15:44:49.389Z,81.51
2023-02-13T15:47:45.392Z,81.51
2023-02-13T15:50:39.484Z,81.69
2023-02-13T15:53:27.385Z,81.66
2023-02-13T15:56:21.393Z,81.61
2023-02-13T15:58:56.556Z,81.57
2023-02-13T16:01:46.465Z,81.75
2023-02-13T16:04:28.504Z,81.81
2023-02-13T16:07:09.381Z,81.75
2023-02-13T16:09:57.398Z,81.50
2023-02-13T16:13:01.370Z,81.27
2023-02-13T16:15:57.616Z,81.05
2023-02-13T16:18:54.368Z,80.54
2023-02-13T16:21:42.386Z,80.04
2023-02-13T16:24:28.547Z,79.86
2023-02-13T16:27:21.594Z,79.67
2023-02-13T16:30:24.971Z,79.29
2023-02-13T16:33:22.605Z,79.24
2023-02-13T16:36:00.412Z,79.36
2023-02-13T16:38:56.196Z,79.34
2023-02-13T16:41:39.524Z,79.52
2023-02-13T16:44:38.381Z,79.67
2023-02-13T16:47:20.384Z,79.90
2023-02-13T16:50:08.367Z,80.02
2023-02-13T16:52:44.498Z,80.15
2023-02-13T16:55:34.578Z,80.10
2023-02-13T16:58:18.571Z,80.09
2023-02-13T17:01:08.390Z,80.19
2023-02-13T17:03:43.600Z,80.02
2023-02-13T17:06:31.588Z,80.01
2023-02-13T17:09:07.713Z,80.00
2023-02-13T17:11:59.359Z,80.08
2023-02-13T17:14:48.387Z,80.20
2023-02-13T17:17:45.373Z,80.15
2023-02-13T17:20:36.590Z,80.13
2023-02-13T17:23:21.362Z,80.03
2023-02-13T17:26:09.380Z,79.95
2023-02-13T17:28:44.704Z,79.76
2023-02-13T17:31:32.766Z,79.65
2023-02-13T17:34:08.519Z,79.71
2023-02-13T17:36:56.377Z,79.74
2023-02-13T17:39:31.653Z,79.51
2023-02-13T17:42:24.378Z,79.43
2023-02-13T17:45:00.544Z,79.32
2023-02-13T17:47:50.382Z,78.85
2023-02-13T17:50:26.569Z,78.20
2023-02-13T17:53:29.574Z,77.65
2023-02-13T17:56:05.970Z,77.15
2023-02-13T17:58:55.360Z,76.64
2023-02-13T18:01:29.549Z,76.38
2023-02-13T18:04:17.357Z,76.40
2023-02-13T18:06:59.553Z,76.23
2023-02-13T18:09:40.788Z,76.45
2023-02-13T18:12:35.371Z,76.66
2023-02-13T18:15:23.863Z,76.92
2023-02-13T18:18:11.373Z,77.14
2023-02-13T18:20:53.364Z,77.40
2023-02-13T18:23:48.327Z,77.55
2023-02-13T18:26:36.352Z,77.72
2023-02-13T18:29:18.349Z,77.92
2023-02-13T18:32:15.678Z,78.09
2023-02-13T18:35:05.339Z,78.31
2023-02-13T18:37:48.439Z,78.51
2023-02-13T18:40:43.360Z,78.74
2023-02-13T18:43:26.220Z,78.77
2023-02-13T18:46:23.487Z,78.88
2023-02-13T18:49:12.343Z,78.88
2023-02-13T18:51:47.479Z,78.94
2023-02-13T18:54:35.347Z,78.88
2023-02-13T18:57:11.509Z,78.88
2023-02-13T18:59:59.361Z,78.94
2023-02-13T19:02:34.702Z,79.02
2023-02-13T19:05:24.363Z,78.99
2023-02-13T19:08:06.335Z,78.78
2023-02-13T19:10:54.551Z,78.83
2023-02-13T19:13:50.543Z,78.77
2023-02-13T19:16:49.242Z,78.70
2023-02-13T19:19:41.746Z,78.66
2023-02-13T19:22:19.982Z,78.62
2023-02-13T19:25:09.857Z,78.62
2023-02-13T19:27:45.567Z,78.51
2023-02-13T19:30:34.956Z,78.38
2023-02-13T19:33:13.131Z,78.28
2023-02-13T19:36:13.355Z,78.17
2023-02-13T19:38:48.823Z,78.17
2023-02-13T19:41:42.756Z,78.17
2023-02-13T19:44:22.400Z,78.08
2023-02-13T19:47:13.335Z,77.85
2023-02-13T19:49:56.350Z,77.84
2023-02-13T19:52:52.853Z,77.77
2023-02-13T19:55:43.383Z,77.67
2023-02-13T19:58:20.585Z,77.74
2023-02-13T20:01:24.585Z,77.76
2023-02-13T20:04:03.499Z,77.86
2023-02-13T20:06:52.341Z,77.96
2023-02-13T20:09:29.360Z,78.06
2023-02-13T20:12:17.342Z,78.00
2023-02-13T20:14:52.694Z,78.09
2023-02-13T20:17:43.603Z,78.12
2023-02-13T20:20:26.328Z,78.04
2023-02-13T20:23:21.432Z,78.04
2023-02-13T20:26:20.332Z,78.08
2023-02-13T20:29:10.334Z,78.08
2023-02-13T20:31:52.491Z,78.10
2023-02-13T20:34:58.218Z,78.13
2023-02-13T20:37:40.514Z,78.11
2023-02-13T20:40:31.778Z,78.13
2023-02-13T20:43:13.457Z,77.91
2023-02-13T20:45:55.738Z,78.02
2023-02-13T20:48:37.336Z,78.07
2023-02-13T20:51:20.453Z,78.16
2023-02-13T20:54:02.343Z,78.02
2023-02-13T20:56:45.471Z,77.95
2023-02-13T20:59:26.315Z,77.89
2023-02-13T21:02:07.465Z,77.88
2023-02-13T21:04:49.358Z,77.82
2023-02-13T21:07:31.840Z,77.81
2023-02-13T21:10:13.320Z,77.70
2023-02-13T21:12:54.438Z,77.59
2023-02-13T21:15:42.333Z,77.58
2023-02-13T21:18:18.473Z,77.26
2023-02-13T21:21:07.321Z,76.83
2023-02-13T21:23:42.450Z,76.34
2023-02-13T21:26:31.330Z,75.97
2023-02-13T21:29:06.440Z,75.92
2023-02-13T21:31:55.779Z,75.79
2023-02-13T21:34:37.344Z,75.75
2023-02-13T21:37:32.451Z,75.47
2023-02-13T21:40:20.391Z,75.30
2023-02-13T21:42:55.495Z,75.47
2023-02-13T21:45:43.593Z,75.64
2023-02-13T21:48:18.452Z,75.75
2023-02-13T21:51:06.314Z,75.96
2023-02-13T21:53:48.456Z,76.27
2023-02-13T21:56:48.370Z,76.44
2023-02-13T21:59:36.392Z,76.51
2023-02-13T22:02:11.553Z,76.74
2023-02-13T22:04:59.343Z,76.93
2023-02-13T22:08:02.903Z,77.11
2023-02-13T22:11:05.529Z,77.10
2023-02-13T22:13:48.322Z,77.04
2023-02-13T22:16:58.862Z,76.83
2023-02-13T22:19:47.383Z,76.64
2023-02-13T22:22:32.421Z,76.48
2023-02-13T22:25:20.497Z,76.33
2023-02-13T22:28:15.247Z,76.32
2023-02-13T22:30:56.431Z,76.42
2023-02-13T22:33:40.479Z,76.38
2023-02-13T22:36:23.192Z,76.34
2023-02-13T22:39:35.390Z,76.30
2023-02-13T22:42:10.723Z,76.29
2023-02-13T22:44:58.532Z,76.32
2023-02-13T22:47:34.080Z,76.46
2023-02-13T22:50:23.301Z,76.50
2023-02-13T22:52:57.982Z,76.65
2023-02-13T22:55:46.383Z,76.77
2023-02-13T22:58:20.957Z,76.61
2023-02-13T23:01:09.646Z,76.67
2023-02-13T23:03:51.356Z,76.68
2023-02-13T23:06:40.308Z,76.86
2023-02-13T23:09:14.945Z,76.85
2023-02-13T23:12:22.520Z,76.93
2023-02-13T23:14:58.227Z,77.08
2023-02-13T23:18:04.322Z,77.10
2023-02-13T23:20:52.388Z,77.19
2023-02-13T23:23:27.722Z,77.25
2023-02-13T23:26:15.865Z,77.25
2023-02-13T23:28:56.531Z,77.32
2023-02-13T23:31:37.396Z,77.35
2023-02-13T23:34:18.462Z,77.38
2023-02-13T23:36:59.307Z,77.43
2023-02-13T23:39:47.302Z,77.43
2023-02-13T23:42:28.359Z,77.38
2023-02-13T23:45:10.432Z,77.36
2023-02-13T23:47:51.300Z,77.36
2023-02-13T23:50:39.367Z,77.31
2023-02-13T23:53:20.298Z,77.27
2023-02-13T23:56:08.315Z,77.27
2023-02-13T23:58:42.715Z,77.22
